Bucyrus, MO (65444)

7:01 PM CDT on July 23, 2014 (GMT -0500)
Houston (KMOHOUST5) Elev 1175 ft | 37.33 °N, 91.96 °W | Change Station

Current weather conditions updated 6 minutes ago

Clear
Clear
83.3 °F
Feels Like 89 °F
N
1.1
Wind Variable Wind from SSW

Tomorrow is forecast to be Much Cooler than today.

Today
High -- | Low -- °F
--% Chance of Precip.
Yesterday
High -- | Low -- °F
Precip. -- in
6:05 AM 8:23 PM
Waning Crescent, 8% visible
Pressure 30.06 in
Visibility 10.0 miles
Clouds Clear
Heat Index 89 °F
Dew Point 72 °F
Humidity 69%
Rainfall 0.00 in
Snow Depth Not available.
UV 1 out of 12
Pollen 4.80 out of 12
Air Quality Not available.
Flu Activity Not available.
METAR KTBN 232358Z AUTO 35007KT 10SM CLR 30/20 A3006 RMK AO2 SLPNO T02960203 10330 20296 53002

More Conditions Fewer Conditions

Pressure 30.06 in
Visibility 10.0 miles
Clouds Clear
Heat Index 89 °F
Dew Point 72 °F
Humidity 69%
Rainfall 0.00 in
Snow Depth Not available.
UV 1 out of 12
Pollen 4.80 out of 12
Air Quality Not available.
Flu Activity Not available.
METAR KTBN 232358Z AUTO 35007KT 10SM CLR 30/20 A3006 RMK AO2 SLPNO T02960203 10330 20296 53002

More Conditions Fewer Conditions

10-Day Weather Forecast

Almanac

Astronomy

Jul. 23, 2014 Rise Set
Actual Time 6:05 AM CDT 8:23 PM CDT
Civil Twilight 5:35 AM CDT 8:53 PM CDT
Nautical Twilight 4:59 AM CDT 9:29 PM CDT
Astronomical Twilight 4:19 AM CDT 10:09 PM CDT
Moon 3:24 AM CDT (7/23) 5:53 PM CDT (7/23)
Length of Visible Light 15h 17m
Length of Day
14h 18m
Tomorrow will be 1m 32s shorter.
Waning Crescent, 8% of the Moon is Illuminated
Today
Waning Crescent
Jul 26
New
Aug 3
First Quarter
Aug 10
Full
Aug 17
Last Quarter

Today's Extremes

State Highs State Lows

Community

WunderPhotos

Upload Photos

1,736,817 photos uploaded!

Nearby

Snow Depth

Station Depth Elevation
No new snow has been reported.

Earthquake Activity

City Distance Mag. Time & Date
No recent earthquake activity has been reported nearby.
Minimum magnitude displayed is 2.5.

Coastal Water Temperatures

Place Temperature
No Stations Reporting

Nearby Weather Stations

Station Location Temp. Heat Index Dew Point Humidity Wind Precip. Elev Updated Type
Houston, Houston, MO 83.3 °F 89 °F 72 °F 69% SSW  at  1.1 mph - / hr 1175 ft 6:54 PM CDT Normal
Bucyrus / Clara, Mo Texas County, Houston, MO 86.4 °F 93 °F 72 °F 62% North  at  1.7 mph - / hr 1161 ft 6:55 PM CDT Normal
Country, Elk Creek, MO 79.0 °F 82 °F 72 °F 78% SW  at  0.0 mph 0.00 in / hr 1332 ft 6:57 PM CDT Normal
Montauk/Salem SR 32/119, Salem, MO 82.4 °F 86 °F 68 °F 63% South  at  0.9 mph 0.00 in / hr 1328 ft 7:01 PM CDT Rapid Fire
Pierce Township Texas County, Willow Springs, MO 80.1 °F 83 °F 68 °F 68% SW  at  3.1 mph - / hr 1364 ft 6:53 PM CDT Normal
Pulaski County MO OEM2, Dixon, MO 86.9 °F 101 °F 79 °F 77% SE  at  0.0 mph 0.00 in / hr 1144 ft 7:01 PM CDT Normal

Show More Stations Show Fewer Stations